createdAt,value
2023-05-04T00:01:28.840Z,102181.38
2023-05-04T00:04:15.851Z,102182.22
2023-05-04T00:07:02.456Z,102180.44
2023-05-04T00:09:51.111Z,102173.44
2023-05-04T00:12:38.184Z,102174.28
2023-05-04T00:15:24.836Z,102174.25
2023-05-04T00:18:11.527Z,102170.72
2023-05-04T00:20:59.581Z,102170.69
2023-05-04T00:23:46.234Z,102168.06
2023-05-04T00:26:34.319Z,102166.28
2023-05-04T00:29:21.181Z,102165.38
2023-05-04T00:32:07.901Z,102166.25
2023-05-04T00:34:54.852Z,102165.34
2023-05-04T00:37:43.828Z,102166.25
2023-05-04T00:40:30.358Z,102169.72
2023-05-04T00:43:18.587Z,102160.06
2023-05-04T00:46:05.395Z,102166.19
2023-05-04T00:48:53.735Z,102160.94
2023-05-04T00:51:41.182Z,102164.47
2023-05-04T00:54:29.096Z,102159.16
2023-05-04T00:57:18.043Z,102163.50
2023-05-04T01:00:08.650Z,102157.34
2023-05-04T01:02:55.134Z,102157.28
2023-05-04T01:05:53.487Z,102152.91
2023-05-04T01:08:43.573Z,102155.41
2023-05-04T01:11:37.482Z,102151.00
2023-05-04T01:14:25.348Z,102150.09
2023-05-04T01:17:13.822Z,102138.72
2023-05-04T01:20:00.450Z,102153.63
2023-05-04T01:22:48.765Z,102147.47
2023-05-04T01:25:41.016Z,102133.31
2023-05-04T01:28:36.226Z,102139.44
2023-05-04T01:31:26.290Z,102143.84
2023-05-04T01:34:13.971Z,102143.09
2023-05-04T01:37:00.747Z,102137.75
2023-05-04T01:39:48.826Z,102142.94
2023-05-04T01:42:35.616Z,102135.84
2023-05-04T01:45:22.641Z,102149.81
2023-05-04T01:48:09.487Z,102148.91
2023-05-04T01:50:56.100Z,102146.38
2023-05-04T01:53:42.818Z,102152.50
2023-05-04T01:56:31.632Z,102147.13
2023-05-04T01:59:18.480Z,102134.75
2023-05-04T02:02:05.171Z,102131.31
2023-05-04T02:04:51.752Z,102131.34
2023-05-04T02:07:38.579Z,102122.56
2023-05-04T02:10:26.931Z,102126.09
2023-05-04T02:13:15.013Z,102122.47
2023-05-04T02:16:02.020Z,102123.22
2023-05-04T02:18:48.490Z,102130.38
2023-05-04T02:21:35.990Z,102129.38
2023-05-04T02:24:22.524Z,102116.22
2023-05-04T02:27:09.227Z,102122.31
2023-05-04T02:29:58.499Z,102122.34
2023-05-04T02:32:45.117Z,102126.78
2023-05-04T02:35:31.907Z,102126.75
2023-05-04T02:38:18.521Z,102125.72
2023-05-04T02:41:05.439Z,102130.03
2023-05-04T02:43:52.273Z,102127.34
2023-05-04T02:46:40.458Z,102133.50
2023-05-04T02:49:27.083Z,102123.84
2023-05-04T02:52:13.976Z,102132.59
2023-05-04T02:55:03.360Z,102124.69
2023-05-04T02:57:50.147Z,102124.56
2023-05-04T03:00:37.023Z,102123.66
2023-05-04T03:03:25.233Z,102126.38
2023-05-04T03:06:12.301Z,102123.75
2023-05-04T03:08:58.996Z,102123.72
2023-05-04T03:11:45.861Z,102119.19
2023-05-04T03:14:32.654Z,102117.44
2023-05-04T03:17:19.794Z,102116.44
2023-05-04T03:20:10.052Z,102113.72
2023-05-04T03:22:56.542Z,102121.59
2023-05-04T03:25:44.784Z,102118.09
2023-05-04T03:28:31.357Z,102120.81
2023-05-04T03:31:18.387Z,102121.06
2023-05-04T03:34:09.765Z,102123.47
2023-05-04T03:36:57.982Z,102132.06
2023-05-04T03:39:45.089Z,102125.94
2023-05-04T03:42:31.898Z,102122.38
2023-05-04T03:45:19.007Z,102118.91
2023-05-04T03:48:05.609Z,102118.09
2023-05-04T03:50:52.500Z,102115.56
2023-05-04T03:53:41.377Z,102120.69
2023-05-04T03:56:29.212Z,102116.44
2023-05-04T03:59:17.629Z,102119.06
2023-05-04T04:02:05.159Z,102121.63
2023-05-04T04:04:51.957Z,102122.44
2023-05-04T04:07:38.685Z,102119.81
2023-05-04T04:10:27.021Z,102122.50
2023-05-04T04:13:13.622Z,102116.44
2023-05-04T04:16:00.544Z,102115.63
2023-05-04T04:18:48.121Z,102108.66
2023-05-04T04:21:35.358Z,102111.56
2023-05-04T04:24:22.277Z,102107.09
2023-05-04T04:27:10.411Z,102098.53
2023-05-04T04:29:57.426Z,102104.09
2023-05-04T04:32:44.325Z,102104.22
2023-05-04T04:35:32.795Z,102105.47
2023-05-04T04:38:19.402Z,102103.03
2023-05-04T04:41:06.461Z,102102.19
2023-05-04T04:43:54.422Z,102098.66
2023-05-04T04:46:41.287Z,102107.41
2023-05-04T04:49:27.917Z,102096.97
2023-05-04T04:52:15.669Z,102099.59
2023-05-04T04:55:02.505Z,102103.13
2023-05-04T04:57:48.933Z,102103.13
2023-05-04T05:00:37.523Z,102060.16
2023-05-04T05:03:24.144Z,102092.44
2023-05-04T05:06:11.398Z,102101.41
2023-05-04T05:08:58.347Z,102100.94
2023-05-04T05:11:45.099Z,102095.75
2023-05-04T05:14:39.377Z,102086.63
2023-05-04T05:17:37.081Z,102087.63
2023-05-04T05:20:34.385Z,102080.72
2023-05-04T05:23:26.282Z,102071.69
2023-05-04T05:26:14.574Z,102074.63
2023-05-04T05:29:01.848Z,102067.00
2023-05-04T05:31:49.517Z,102072.84
2023-05-04T05:34:39.026Z,102076.53
2023-05-04T05:37:25.721Z,102072.84
2023-05-04T05:40:14.205Z,102073.94
2023-05-04T05:43:01.240Z,102073.97
2023-05-04T05:45:48.821Z,102074.59
2023-05-04T05:48:35.695Z,102076.25
2023-05-04T05:51:23.593Z,102071.50
2023-05-04T05:54:10.602Z,102080.03
2023-05-04T05:56:56.971Z,102078.06
2023-05-04T05:59:45.862Z,102084.50
2023-05-04T06:02:32.784Z,102073.34
2023-05-04T06:05:19.486Z,102082.25
2023-05-04T06:08:07.764Z,102074.06
2023-05-04T06:10:56.422Z,102082.78
2023-05-04T06:13:43.210Z,102082.31
2023-05-04T06:16:29.878Z,102079.69
2023-05-04T06:19:16.671Z,102084.41
2023-05-04T06:22:04.211Z,102080.84
2023-05-04T06:24:53.999Z,102077.34
2023-05-04T06:27:43.729Z,102083.47
2023-05-04T06:30:30.465Z,102080.22
2023-05-04T06:33:17.795Z,102083.00
2023-05-04T06:36:04.877Z,102081.59
2023-05-04T06:38:51.378Z,102069.59
2023-05-04T06:41:39.506Z,102081.31
2023-05-04T06:44:26.456Z,102079.06
2023-05-04T06:47:12.821Z,102082.88
2023-05-04T06:49:59.768Z,102078.63
2023-05-04T06:52:47.509Z,102075.72
2023-05-04T06:55:34.076Z,102082.22
2023-05-04T06:58:22.415Z,102076.69
2023-05-04T07:01:09.442Z,102076.63
2023-05-04T07:03:58.461Z,102077.47
2023-05-04T07:06:45.051Z,102083.34
2023-05-04T07:09:31.911Z,102081.50
2023-05-04T07:12:19.265Z,102072.88
2023-05-04T07:15:08.918Z,102072.91
2023-05-04T07:17:55.715Z,102066.03
2023-05-04T07:20:43.354Z,102058.88
2023-05-04T07:23:30.203Z,102061.38
2023-05-04T07:26:16.878Z,102066.97
2023-05-04T07:29:03.671Z,102065.41
2023-05-04T07:31:52.086Z,102066.06
2023-05-04T07:34:45.697Z,102060.25
2023-05-04T07:37:33.557Z,102056.31
2023-05-04T07:40:21.580Z,102052.47
2023-05-04T07:43:08.063Z,102053.81
2023-05-04T07:45:55.126Z,102046.47
2023-05-04T07:48:42.971Z,102056.28
2023-05-04T07:51:29.912Z,102055.06
2023-05-04T07:54:16.590Z,102055.31
2023-05-04T07:57:04.373Z,102054.91
2023-05-04T07:59:55.243Z,102051.91
2023-05-04T08:02:42.054Z,102045.44
2023-05-04T08:05:30.213Z,102037.44
2023-05-04T08:08:17.394Z,102037.56
2023-05-04T08:11:18.498Z,102035.06
2023-05-04T08:14:06.799Z,102031.16
2023-05-04T08:16:53.724Z,102035.47
2023-05-04T08:19:40.568Z,102034.94
2023-05-04T08:22:28.635Z,102031.28
2023-05-04T08:25:15.693Z,102024.72
2023-05-04T08:28:02.501Z,102034.72
2023-05-04T08:30:49.398Z,102026.34
2023-05-04T08:33:36.100Z,102025.31
2023-05-04T08:36:22.962Z,102013.84
2023-05-04T08:39:12.082Z,102005.97
2023-05-04T08:41:59.112Z,102009.91
2023-05-04T08:44:45.999Z,102006.25
2023-05-04T08:47:32.990Z,102013.69
2023-05-04T08:50:19.735Z,102007.47
2023-05-04T08:53:08.486Z,102005.94
2023-05-04T08:55:57.670Z,102004.34
2023-05-04T08:58:50.520Z,102000.66
2023-05-04T09:01:39.100Z,102008.78
2023-05-04T09:04:29.328Z,102004.44
2023-05-04T09:07:16.502Z,102007.16
2023-05-04T09:10:04.259Z,102003.81
2023-05-04T09:12:56.113Z,102005.19
2023-05-04T09:15:43.190Z,102006.63
2023-05-04T09:18:40.701Z,102008.97
2023-05-04T09:21:30.237Z,102004.59
2023-05-04T09:24:27.005Z,102001.63
2023-05-04T09:27:15.882Z,102003.63
2023-05-04T09:30:05.568Z,102009.53
2023-05-04T09:32:53.088Z,102004.09
2023-05-04T09:35:42.226Z,102000.53
2023-05-04T09:38:29.835Z,101999.44
2023-05-04T09:41:16.709Z,101996.84
2023-05-04T09:44:03.539Z,101997.31
2023-05-04T09:46:55.967Z,101999.13
2023-05-04T09:49:42.481Z,101997.16
2023-05-04T09:52:33.148Z,101987.03
2023-05-04T09:55:21.244Z,101984.19
2023-05-04T09:58:08.508Z,101979.13
2023-05-04T10:00:55.004Z,101960.25
2023-05-04T10:03:44.729Z,101958.81
2023-05-04T10:06:31.512Z,101954.03
2023-05-04T10:09:18.408Z,101958.97
2023-05-04T10:12:05.755Z,101943.56
2023-05-04T10:14:52.992Z,101948.66
2023-05-04T10:17:55.893Z,101947.63
2023-05-04T10:21:16.352Z,101939.84
2023-05-04T10:24:26.827Z,101941.81
2023-05-04T10:27:16.961Z,101936.50
2023-05-04T10:30:05.114Z,101929.03
2023-05-04T10:32:57.375Z,101921.38
2023-05-04T10:35:53.617Z,101906.44
2023-05-04T10:38:41.717Z,101913.78
2023-05-04T10:41:28.581Z,101913.38
2023-05-04T10:44:15.261Z,101920.06
2023-05-04T10:47:03.949Z,101917.19
2023-05-04T10:50:01.472Z,101912.34
2023-05-04T10:52:50.780Z,101915.53
2023-05-04T10:55:42.073Z,101901.56
2023-05-04T10:58:29.991Z,101904.03
2023-05-04T11:01:16.855Z,101901.66
2023-05-04T11:04:03.730Z,101894.38
2023-05-04T11:06:58.373Z,101897.31
2023-05-04T11:09:46.505Z,101887.88
2023-05-04T11:12:33.545Z,101887.75
2023-05-04T11:15:20.648Z,101883.50
2023-05-04T11:18:07.564Z,101869.56
2023-05-04T11:20:54.357Z,101861.44
2023-05-04T11:23:41.527Z,101862.97
2023-05-04T11:26:29.488Z,101859.41
2023-05-04T11:29:16.613Z,101863.47
2023-05-04T11:32:03.097Z,101860.34
2023-05-04T11:34:49.832Z,101860.09
2023-05-04T11:37:41.343Z,101853.72
2023-05-04T11:40:28.638Z,101850.44
2023-05-04T11:43:18.031Z,101852.28
2023-05-04T11:46:05.644Z,101851.53
2023-05-04T11:48:52.804Z,101843.19
2023-05-04T11:51:39.399Z,101848.53
2023-05-04T11:54:26.201Z,101845.47
2023-05-04T11:57:22.906Z,101842.41
2023-05-04T12:00:12.530Z,101846.00
2023-05-04T12:03:00.912Z,101841.66
2023-05-04T12:05:48.535Z,101842.72
2023-05-04T12:08:38.164Z,101835.66
2023-05-04T12:11:26.046Z,101830.47
2023-05-04T12:14:15.176Z,101825.91
2023-05-04T12:17:03.553Z,101827.34
2023-05-04T12:19:56.136Z,101823.75
2023-05-04T12:22:42.959Z,101824.06
2023-05-04T12:25:29.718Z,101828.59
2023-05-04T12:28:16.570Z,101823.09
2023-05-04T12:31:04.765Z,101820.59
2023-05-04T12:33:52.832Z,101821.19
2023-05-04T12:36:39.475Z,101818.34
2023-05-04T12:39:28.067Z,101815.56
2023-05-04T12:42:14.592Z,101813.66
2023-05-04T12:45:01.521Z,101805.72
2023-05-04T12:47:48.127Z,101803.59
2023-05-04T12:50:36.287Z,101808.06
2023-05-04T12:53:25.982Z,101805.28
2023-05-04T12:56:12.390Z,101800.03
2023-05-04T12:58:59.133Z,101793.22
2023-05-04T13:01:46.311Z,101779.94
2023-05-04T13:04:33.037Z,101787.06
2023-05-04T13:07:21.055Z,101784.44
2023-05-04T13:10:09.003Z,101777.31
2023-05-04T13:12:56.055Z,101774.06
2023-05-04T13:15:43.353Z,101771.56
2023-05-04T13:18:34.712Z,101770.50
2023-05-04T13:21:21.976Z,101776.16
2023-05-04T13:24:11.429Z,101772.91
2023-05-04T13:26:58.392Z,101772.06
2023-05-04T13:29:45.372Z,101769.63
2023-05-04T13:32:33.247Z,101763.28
2023-05-04T13:35:20.833Z,101760.78
2023-05-04T13:38:07.420Z,101760.25
2023-05-04T13:40:55.615Z,101758.25
2023-05-04T13:43:42.397Z,101757.72
2023-05-04T13:46:29.230Z,101742.50
2023-05-04T13:49:16.070Z,101746.94
2023-05-04T13:52:02.989Z,101738.06
2023-05-04T13:54:49.713Z,101728.72
2023-05-04T13:57:37.953Z,101732.06
2023-05-04T14:00:24.856Z,101729.75
2023-05-04T14:03:11.685Z,101719.91
2023-05-04T14:05:59.300Z,101712.91
2023-05-04T14:08:45.784Z,101713.91
2023-05-04T14:11:32.993Z,101707.47
2023-05-04T14:14:21.909Z,101701.88
2023-05-04T14:17:08.997Z,101700.28
2023-05-04T14:19:56.868Z,101693.88
2023-05-04T14:22:43.671Z,101692.16
2023-05-04T14:25:32.407Z,101681.56
2023-05-04T14:28:21.828Z,101680.41
2023-05-04T14:31:10.926Z,101668.72
2023-05-04T14:33:57.705Z,101680.91
2023-05-04T14:36:44.555Z,101685.44
2023-05-04T14:39:31.346Z,101664.44
2023-05-04T14:42:18.121Z,101673.13
2023-05-04T14:45:05.417Z,101667.34
2023-05-04T14:47:53.695Z,101667.31
2023-05-04T14:50:41.636Z,101665.78
2023-05-04T14:53:29.916Z,101658.75
2023-05-04T14:56:16.612Z,101655.88
2023-05-04T14:59:03.524Z,101650.47
2023-05-04T15:01:50.520Z,101651.53
2023-05-04T15:04:38.563Z,101646.94
2023-05-04T15:07:26.912Z,101650.47
2023-05-04T15:10:14.907Z,101643.00
2023-05-04T15:13:03.383Z,101642.78
2023-05-04T15:15:50.029Z,101634.88
2023-05-04T15:18:36.843Z,101631.72
2023-05-04T15:21:24.964Z,101635.47
2023-05-04T15:24:11.825Z,101631.50
2023-05-04T15:26:58.792Z,101628.88
2023-05-04T15:29:45.248Z,101630.88
2023-05-04T15:32:32.397Z,101621.63
2023-05-04T15:35:19.353Z,101621.91
2023-05-04T15:38:07.229Z,101616.97
2023-05-04T15:40:54.145Z,101612.56
2023-05-04T15:43:40.964Z,101614.19
2023-05-04T15:46:27.765Z,101609.84
2023-05-04T15:49:14.748Z,101611.78
2023-05-04T15:52:01.524Z,101618.34
2023-05-04T15:54:49.512Z,101615.22
2023-05-04T15:57:36.804Z,101601.88
2023-05-04T16:00:24.002Z,101610.72
2023-05-04T16:03:10.538Z,101603.88
2023-05-04T16:05:57.344Z,101602.91
2023-05-04T16:08:44.220Z,101609.25
2023-05-04T16:11:33.221Z,101607.44
2023-05-04T16:14:19.942Z,101607.81
2023-05-04T16:17:07.514Z,101598.41
2023-05-04T16:19:54.173Z,101607.81
2023-05-04T16:22:40.837Z,101599.16
2023-05-04T16:25:27.567Z,101598.19
2023-05-04T16:28:28.000Z,101597.78
2023-05-04T16:31:14.817Z,101588.91
2023-05-04T16:34:01.716Z,101594.13
2023-05-04T16:36:48.470Z,101583.81
2023-05-04T16:39:36.219Z,101585.81
2023-05-04T16:42:22.773Z,101581.88
2023-05-04T16:45:13.560Z,101584.09
2023-05-04T16:48:01.086Z,101575.75
2023-05-04T16:50:47.864Z,101580.41
2023-05-04T16:53:34.605Z,101582.59
2023-05-04T16:56:21.401Z,101584.22
2023-05-04T16:59:08.076Z,101587.97
2023-05-04T17:01:56.568Z,101574.16
2023-05-04T17:04:43.646Z,101571.44
2023-05-04T17:07:30.163Z,101566.53
2023-05-04T17:10:18.371Z,101575.78
2023-05-04T17:13:05.112Z,101570.50
2023-05-04T17:15:51.689Z,101563.38
2023-05-04T17:18:40.452Z,101529.22
2023-05-04T17:21:27.445Z,101571.50
2023-05-04T17:24:15.215Z,101579.38
2023-05-04T17:27:03.246Z,101578.03
2023-05-04T17:29:50.031Z,101572.84
2023-05-04T17:32:37.500Z,101568.88
2023-05-04T17:35:26.779Z,101567.72
2023-05-04T17:38:13.605Z,101568.00
2023-05-04T17:41:00.445Z,101569.16
2023-05-04T17:43:50.236Z,101570.34
2023-05-04T17:46:36.917Z,101575.53
2023-05-04T17:49:23.344Z,101572.78
2023-05-04T17:52:13.657Z,101574.97
2023-05-04T17:55:01.176Z,101573.19
2023-05-04T17:57:47.877Z,101567.66
2023-05-04T18:00:34.867Z,101571.34
2023-05-04T18:03:21.487Z,101569.63
2023-05-04T18:06:08.323Z,101564.19
2023-05-04T18:08:56.354Z,101567.88
2023-05-04T18:11:43.069Z,101564.88
2023-05-04T18:14:30.038Z,101566.53
2023-05-04T18:17:16.847Z,101561.53
2023-05-04T18:20:04.344Z,101579.81
2023-05-04T18:22:51.042Z,101579.22
2023-05-04T18:25:39.183Z,101584.78
2023-05-04T18:28:25.671Z,101581.16
2023-05-04T18:31:12.439Z,101588.50
2023-05-04T18:34:02.529Z,101591.16
2023-05-04T18:36:49.427Z,101593.69
2023-05-04T18:39:36.580Z,101601.13
2023-05-04T18:42:24.508Z,101598.06
2023-05-04T18:45:12.467Z,101598.59
2023-05-04T18:47:58.973Z,101599.13
2023-05-04T18:50:54.029Z,101599.66
2023-05-04T18:53:40.692Z,101591.44
2023-05-04T18:56:27.699Z,101597.06
2023-05-04T18:59:15.506Z,101597.38
2023-05-04T19:02:02.582Z,101604.69
2023-05-04T19:04:48.943Z,101613.31
2023-05-04T19:07:35.824Z,101615.03
2023-05-04T19:10:22.475Z,101616.84
2023-05-04T19:13:09.512Z,101617.94
2023-05-04T19:15:57.485Z,101621.66
2023-05-04T19:18:44.640Z,101622.88
2023-05-04T19:21:31.971Z,101623.94
2023-05-04T19:24:19.022Z,101629.44
2023-05-04T19:27:05.628Z,101629.28
2023-05-04T19:29:52.228Z,101626.09
2023-05-04T19:32:40.576Z,101633.84
2023-05-04T19:35:27.069Z,101634.78
2023-05-04T19:38:13.646Z,101634.09
2023-05-04T19:41:00.473Z,101628.91
2023-05-04T19:43:47.178Z,101627.03
2023-05-04T19:46:33.955Z,101617.88
2023-05-04T19:49:22.364Z,101633.78
2023-05-04T19:52:09.289Z,101620.34
2023-05-04T19:54:56.017Z,101623.56
2023-05-04T19:57:42.769Z,101617.47
2023-05-04T20:00:29.721Z,101622.03
2023-05-04T20:03:17.143Z,101614.81
2023-05-04T20:06:05.367Z,101633.22
2023-05-04T20:08:52.353Z,101631.69
2023-05-04T20:11:39.093Z,101639.19
2023-05-04T20:14:25.807Z,101636.84
2023-05-04T20:17:12.669Z,101626.41
2023-05-04T20:19:59.634Z,101635.72
2023-05-04T20:22:49.215Z,101635.09
2023-05-04T20:25:35.815Z,101633.66
2023-05-04T20:28:23.064Z,101625.66
2023-05-04T20:31:10.114Z,101631.06
2023-05-04T20:33:56.660Z,101633.34
2023-05-04T20:36:43.411Z,101624.16
2023-05-04T20:39:31.611Z,101624.50
2023-05-04T20:42:18.722Z,101633.09
2023-05-04T20:45:06.594Z,101629.13
2023-05-04T20:47:53.381Z,101628.13
2023-05-04T20:50:40.423Z,101628.69
2023-05-04T20:53:27.522Z,101623.69
2023-05-04T20:56:15.821Z,101627.13
2023-05-04T20:59:04.673Z,101621.63
2023-05-04T21:01:51.502Z,101627.09
2023-05-04T21:04:38.334Z,101623.84
2023-05-04T21:07:25.216Z,101627.19
2023-05-04T21:10:12.256Z,101621.81
2023-05-04T21:13:05.703Z,101618.78
2023-05-04T21:15:55.281Z,101626.63
2023-05-04T21:18:45.849Z,101622.66
2023-05-04T21:21:34.815Z,101625.75
2023-05-04T21:24:22.017Z,101624.53
2023-05-04T21:27:09.040Z,101625.41
2023-05-04T21:29:57.223Z,101624.00
2023-05-04T21:32:43.785Z,101623.00
2023-05-04T21:35:30.916Z,101610.72
2023-05-04T21:38:18.975Z,101610.47
2023-05-04T21:41:12.688Z,101617.47
2023-05-04T21:43:59.314Z,101609.75
2023-05-04T21:46:47.557Z,101615.09
2023-05-04T21:49:34.447Z,101621.47
2023-05-04T21:52:21.629Z,101617.56
2023-05-04T21:55:08.730Z,101621.22
2023-05-04T21:57:56.216Z,101614.25
2023-05-04T22:00:43.997Z,101618.50
2023-05-04T22:03:32.385Z,101603.41
2023-05-04T22:06:18.992Z,101611.47
2023-05-04T22:09:05.931Z,101611.47
2023-05-04T22:11:52.553Z,101610.97
2023-05-04T22:14:41.641Z,101611.69
2023-05-04T22:17:28.916Z,101608.56
2023-05-04T22:20:17.034Z,101608.03
2023-05-04T22:23:04.005Z,101621.09
2023-05-04T22:25:50.771Z,101616.47
2023-05-04T22:28:37.687Z,101615.84
2023-05-04T22:31:24.330Z,101620.16
2023-05-04T22:34:11.094Z,101617.78
2023-05-04T22:36:59.267Z,101617.47
2023-05-04T22:39:45.982Z,101620.38
2023-05-04T22:42:32.717Z,101621.16
2023-05-04T22:45:19.860Z,101624.09
2023-05-04T22:48:06.329Z,101631.28
2023-05-04T22:50:53.227Z,101625.81
2023-05-04T22:53:41.118Z,101626.09
2023-05-04T22:56:27.737Z,101621.78
2023-05-04T22:59:15.087Z,101621.41
2023-05-04T23:02:01.874Z,101625.06
2023-05-04T23:04:48.470Z,101615.66
2023-05-04T23:07:34.983Z,101616.84
2023-05-04T23:10:23.572Z,101617.59
2023-05-04T23:13:10.498Z,101606.38
2023-05-04T23:15:57.794Z,101612.66
2023-05-04T23:18:44.631Z,101552.31
2023-05-04T23:21:31.643Z,101606.72
2023-05-04T23:24:18.032Z,101620.28
2023-05-04T23:27:06.385Z,101611.28
2023-05-04T23:29:53.138Z,101624.84
2023-05-04T23:32:39.883Z,101612.06
2023-05-04T23:35:27.077Z,101573.91
2023-05-04T23:38:14.005Z,101616.69
2023-05-04T23:41:03.390Z,101617.75
2023-05-04T23:43:51.479Z,101611.59
2023-05-04T23:46:38.301Z,101608.88
2023-05-04T23:49:25.239Z,101608.84
2023-05-04T23:52:12.036Z,101612.22
2023-05-04T23:54:58.712Z,101602.81
2023-05-04T23:57:45.583Z,101610.53
